createdAt,value
2018-07-21T00:00:55.227Z,26.87
2018-07-21T00:03:23.847Z,26.91
2018-07-21T00:05:52.468Z,26.94
2018-07-21T00:08:21.111Z,26.97
2018-07-21T00:10:49.785Z,26.97
2018-07-21T00:13:18.454Z,26.99
2018-07-21T00:15:47.073Z,26.99
2018-07-21T00:18:15.695Z,26.97
2018-07-21T00:20:44.293Z,26.94
2018-07-21T00:23:12.997Z,26.92
2018-07-21T00:25:41.681Z,26.91
2018-07-21T00:28:10.279Z,26.87
2018-07-21T00:30:38.880Z,26.85
2018-07-21T00:33:07.509Z,26.84
2018-07-21T00:35:36.095Z,26.82
2018-07-21T00:38:04.674Z,26.78
2018-07-21T00:40:33.243Z,26.77
2018-07-21T00:43:01.908Z,26.76
2018-07-21T00:45:30.560Z,26.72
2018-07-21T00:47:59.230Z,26.72
2018-07-21T00:50:27.717Z,26.70
2018-07-21T00:52:56.327Z,26.71
2018-07-21T00:55:24.954Z,26.71
2018-07-21T00:57:53.648Z,26.70
2018-07-21T01:00:22.266Z,26.68
2018-07-21T01:02:50.867Z,26.66
2018-07-21T01:05:19.469Z,26.61
2018-07-21T01:07:48.004Z,26.56
2018-07-21T01:10:16.501Z,26.53
2018-07-21T01:12:45.071Z,26.48
2018-07-21T01:15:13.579Z,26.45
2018-07-21T01:17:42.058Z,26.44
2018-07-21T01:20:10.656Z,26.40
2018-07-21T01:22:39.255Z,26.39
2018-07-21T01:25:07.977Z,26.35
2018-07-21T01:27:36.518Z,26.33
2018-07-21T01:30:05.824Z,26.31
2018-07-21T01:32:34.444Z,26.31
2018-07-21T01:35:03.008Z,26.30
2018-07-21T01:37:31.543Z,26.29
2018-07-21T01:40:00.074Z,26.25
2018-07-21T01:42:28.595Z,26.18
2018-07-21T01:44:57.142Z,26.11
2018-07-21T01:47:25.710Z,26.03
2018-07-21T01:49:54.258Z,25.96
2018-07-21T01:52:22.803Z,25.89
2018-07-21T01:54:51.314Z,25.83
2018-07-21T01:57:19.904Z,25.78
2018-07-21T01:59:48.545Z,25.73
2018-07-21T02:02:17.351Z,25.65
2018-07-21T02:04:45.832Z,25.60
2018-07-21T02:07:14.383Z,25.52
2018-07-21T02:09:43.134Z,25.45
2018-07-21T02:12:11.800Z,25.37
2018-07-21T02:14:40.621Z,25.30
2018-07-21T02:17:09.122Z,25.24
2018-07-21T02:19:37.840Z,25.17
2018-07-21T02:22:06.494Z,25.12
2018-07-21T02:24:35.038Z,25.08
2018-07-21T02:27:03.588Z,25.04
2018-07-21T02:29:32.140Z,24.99
2018-07-21T02:32:00.800Z,24.96
2018-07-21T02:34:29.301Z,24.93
2018-07-21T02:36:57.901Z,24.93
2018-07-21T02:39:26.486Z,24.89
2018-07-21T02:41:55.065Z,24.82
2018-07-21T02:44:23.738Z,24.78
2018-07-21T02:46:52.248Z,24.71
2018-07-21T02:49:21.081Z,24.69
2018-07-21T02:51:49.598Z,24.66
2018-07-21T02:54:18.324Z,24.64
2018-07-21T02:56:46.970Z,24.63
2018-07-21T02:59:15.636Z,24.60
2018-07-21T03:01:44.202Z,24.57
2018-07-21T03:04:12.795Z,24.53
2018-07-21T03:06:42.379Z,24.50
2018-07-21T03:09:12.328Z,24.47
2018-07-21T03:11:41.195Z,24.44
2018-07-21T03:14:09.870Z,24.42
2018-07-21T03:16:38.482Z,24.40
2018-07-21T03:19:07.137Z,24.37
2018-07-21T03:21:35.773Z,24.34
2018-07-21T03:24:04.426Z,24.32
2018-07-21T03:26:33.119Z,24.25
2018-07-21T03:29:01.755Z,24.23
2018-07-21T03:31:30.375Z,24.19
2018-07-21T03:33:59.123Z,24.15
2018-07-21T03:36:27.731Z,24.10
2018-07-21T03:38:56.347Z,24.06
2018-07-21T03:41:25.008Z,24.03
2018-07-21T03:43:53.626Z,24.02
2018-07-21T03:46:22.240Z,24.00
2018-07-21T03:48:50.796Z,23.98
2018-07-21T03:51:19.370Z,23.96
2018-07-21T03:53:47.959Z,23.93
2018-07-21T03:56:16.713Z,23.92
2018-07-21T03:58:45.293Z,23.92
2018-07-21T04:01:14.056Z,23.90
2018-07-21T04:03:42.627Z,23.88
2018-07-21T04:06:11.476Z,23.86
2018-07-21T04:08:40.181Z,23.84
2018-07-21T04:11:09.824Z,23.80
2018-07-21T04:13:38.539Z,23.79
2018-07-21T04:16:07.300Z,23.80
2018-07-21T04:18:35.884Z,23.78
2018-07-21T04:21:04.792Z,23.78
2018-07-21T04:23:33.487Z,23.77
2018-07-21T04:26:02.173Z,23.76
2018-07-21T04:28:31.716Z,23.74
2018-07-21T04:31:00.282Z,23.74
2018-07-21T04:33:28.971Z,23.72
2018-07-21T04:35:57.641Z,23.74
2018-07-21T04:38:26.291Z,23.72
2018-07-21T04:40:54.772Z,23.72
2018-07-21T04:43:23.396Z,23.70
2018-07-21T04:45:51.935Z,23.71
2018-07-21T04:48:20.491Z,23.70
2018-07-21T04:50:48.973Z,23.72
2018-07-21T04:53:17.464Z,23.71
2018-07-21T04:55:46.015Z,23.73
2018-07-21T04:58:14.921Z,23.72
2018-07-21T05:00:43.507Z,23.76
2018-07-21T05:03:12.079Z,23.77
2018-07-21T05:05:40.679Z,23.79
2018-07-21T05:08:09.236Z,23.80
2018-07-21T05:10:37.780Z,23.82
2018-07-21T05:13:06.490Z,23.84
2018-07-21T05:15:35.033Z,23.86
2018-07-21T05:18:03.587Z,23.86
2018-07-21T05:20:32.322Z,23.90
2018-07-21T05:23:00.822Z,23.92
2018-07-21T05:25:29.978Z,23.94
2018-07-21T05:27:58.594Z,23.93
2018-07-21T05:30:27.249Z,23.95
2018-07-21T05:32:55.880Z,23.97
2018-07-21T05:35:24.569Z,23.98
2018-07-21T05:37:53.508Z,24.01
2018-07-21T05:40:22.152Z,24.04
2018-07-21T05:42:50.673Z,24.06
2018-07-21T05:45:19.264Z,24.09
2018-07-21T05:47:47.794Z,24.12
2018-07-21T05:50:16.322Z,24.18
2018-07-21T05:52:44.793Z,24.26
2018-07-21T05:55:13.692Z,24.36
2018-07-21T05:57:42.183Z,24.47
2018-07-21T06:00:12.779Z,24.66
2018-07-21T06:02:41.474Z,24.95
2018-07-21T06:05:10.045Z,25.32
2018-07-21T06:07:38.604Z,25.65
2018-07-21T06:10:07.125Z,25.83
2018-07-21T06:12:35.861Z,25.88
2018-07-21T06:15:04.602Z,25.89
2018-07-21T06:17:33.133Z,25.86
2018-07-21T06:20:01.871Z,25.84
2018-07-21T06:22:30.681Z,25.85
2018-07-21T06:25:00.236Z,25.90
2018-07-21T06:27:29.370Z,25.96
2018-07-21T06:29:58.032Z,26.04
2018-07-21T06:32:26.598Z,26.12
2018-07-21T06:34:56.497Z,26.21
2018-07-21T06:37:25.094Z,26.33
2018-07-21T06:39:53.625Z,26.41
2018-07-21T06:42:22.301Z,26.52
2018-07-21T06:44:50.850Z,26.61
2018-07-21T06:47:19.329Z,26.69
2018-07-21T06:49:48.583Z,26.80
2018-07-21T06:52:17.165Z,26.99
2018-07-21T06:54:45.749Z,27.21
2018-07-21T06:57:14.582Z,27.42
2018-07-21T06:59:43.641Z,27.59
2018-07-21T07:02:12.673Z,27.75
2018-07-21T07:04:41.311Z,27.86
2018-07-21T07:07:09.839Z,27.96
2018-07-21T07:09:38.406Z,28.04
2018-07-21T07:12:06.959Z,28.11
2018-07-21T07:14:35.568Z,28.24
2018-07-21T07:17:04.149Z,28.39
2018-07-21T07:19:32.798Z,28.54
2018-07-21T07:22:01.337Z,28.65
2018-07-21T07:24:29.922Z,28.79
2018-07-21T07:26:58.511Z,28.94
2018-07-21T07:29:27.031Z,29.11
2018-07-21T07:31:55.680Z,29.38
2018-07-21T07:34:24.472Z,29.93
2018-07-21T07:36:53.133Z,30.47
2018-07-21T07:39:21.734Z,31.06
2018-07-21T07:41:50.443Z,31.73
2018-07-21T07:44:19.160Z,32.28
2018-07-21T07:46:48.226Z,32.78
2018-07-21T07:49:16.782Z,33.30
2018-07-21T07:51:45.489Z,33.68
2018-07-21T07:54:14.052Z,34.22
2018-07-21T07:56:42.618Z,34.80
2018-07-21T07:59:11.238Z,34.96
2018-07-21T08:01:40.021Z,34.88
2018-07-21T08:04:08.753Z,34.73
2018-07-21T08:06:37.547Z,34.74
2018-07-21T08:09:08.155Z,35.03
2018-07-21T08:11:36.640Z,35.47
2018-07-21T08:14:05.272Z,36.00
2018-07-21T08:16:33.827Z,36.55
2018-07-21T08:19:02.351Z,37.20
2018-07-21T08:21:30.966Z,37.92
2018-07-21T08:23:59.648Z,38.46
2018-07-21T08:26:28.167Z,38.77
2018-07-21T08:28:56.682Z,39.24
2018-07-21T08:31:25.158Z,39.80
2018-07-21T08:33:53.714Z,39.92
2018-07-21T08:36:22.189Z,39.43
2018-07-21T08:38:50.691Z,38.87
2018-07-21T08:41:19.177Z,38.77
2018-07-21T08:43:47.716Z,39.08
2018-07-21T08:46:16.329Z,39.60
2018-07-21T08:48:44.941Z,40.24
2018-07-21T08:51:13.476Z,40.77
2018-07-21T08:53:41.945Z,41.27
2018-07-21T08:56:10.586Z,41.63
2018-07-21T08:58:39.112Z,42.07
2018-07-21T09:01:07.716Z,42.50
2018-07-21T09:03:36.202Z,42.80
2018-07-21T09:06:04.823Z,43.23
2018-07-21T09:08:33.486Z,43.28
2018-07-21T09:11:02.077Z,43.40
2018-07-21T09:13:30.753Z,43.26
2018-07-21T09:15:59.387Z,43.28
2018-07-21T09:18:28.138Z,43.71
2018-07-21T09:20:56.775Z,44.30
2018-07-21T09:23:25.412Z,44.65
2018-07-21T09:25:54.471Z,45.05
2018-07-21T09:28:23.072Z,45.37
2018-07-21T09:30:51.669Z,45.70
2018-07-21T09:33:20.437Z,46.08
2018-07-21T09:35:49.501Z,46.59
2018-07-21T09:38:18.606Z,47.13
2018-07-21T09:40:47.350Z,47.67
2018-07-21T09:43:16.854Z,47.92
2018-07-21T09:45:45.905Z,48.08
2018-07-21T09:48:16.025Z,48.21
2018-07-21T09:50:45.011Z,48.30
2018-07-21T09:53:13.802Z,48.62
2018-07-21T09:55:42.847Z,48.85
2018-07-21T09:58:11.429Z,49.08
2018-07-21T10:00:45.779Z,49.29
2018-07-21T10:03:14.492Z,49.47
2018-07-21T10:05:43.127Z,49.63
2018-07-21T10:08:11.932Z,49.85
2018-07-21T10:10:40.937Z,50.06
2018-07-21T10:13:09.543Z,50.35
2018-07-21T10:15:38.180Z,50.48
2018-07-21T10:18:06.907Z,50.49
2018-07-21T10:20:35.531Z,50.65
2018-07-21T10:23:05.567Z,50.90
2018-07-21T10:25:39.774Z,51.08
2018-07-21T10:28:13.944Z,51.13
2018-07-21T10:30:43.244Z,51.12
2018-07-21T10:33:12.470Z,51.03
2018-07-21T10:35:41.959Z,51.11
2018-07-21T10:38:11.675Z,51.37
2018-07-21T10:40:41.925Z,51.59
2018-07-21T10:43:13.947Z,51.73
2018-07-21T10:45:43.431Z,51.90
2018-07-21T10:48:13.510Z,52.05
2018-07-21T10:50:43.957Z,52.27
2018-07-21T10:53:18.679Z,52.61
2018-07-21T10:55:49.403Z,52.62
2018-07-21T10:58:19.006Z,52.62
2018-07-21T11:00:49.370Z,52.63
2018-07-21T11:03:19.196Z,52.18
2018-07-21T11:05:48.991Z,51.67
2018-07-21T11:08:18.155Z,51.36
2018-07-21T11:10:47.327Z,51.46
2018-07-21T11:13:16.453Z,51.65
2018-07-21T11:15:45.750Z,51.73
2018-07-21T11:18:14.679Z,51.53
2018-07-21T11:20:43.730Z,51.48
2018-07-21T11:23:12.536Z,51.67
2018-07-21T11:25:41.823Z,51.72
2018-07-21T11:28:10.434Z,51.44
2018-07-21T11:30:39.903Z,51.36
2018-07-21T11:33:08.769Z,51.01
2018-07-21T11:35:37.540Z,50.18
2018-07-21T11:38:06.137Z,49.34
2018-07-21T11:40:34.919Z,48.60
2018-07-21T11:43:03.686Z,48.04
2018-07-21T11:45:32.362Z,47.59
2018-07-21T11:48:01.249Z,47.13
2018-07-21T11:50:29.929Z,46.73
2018-07-21T11:52:58.717Z,46.35
2018-07-21T11:55:27.423Z,45.99
2018-07-21T11:57:56.067Z,45.69
2018-07-21T12:00:24.772Z,45.31
2018-07-21T12:02:53.440Z,44.91
2018-07-21T12:05:22.103Z,44.34
2018-07-21T12:07:50.858Z,43.93
2018-07-21T12:10:19.604Z,43.69
2018-07-21T12:12:48.325Z,43.62
2018-07-21T12:15:16.973Z,43.49
2018-07-21T12:17:45.791Z,43.23
2018-07-21T12:20:14.453Z,42.94
2018-07-21T12:22:43.121Z,42.64
2018-07-21T12:25:11.835Z,42.28
2018-07-21T12:27:40.462Z,41.89
2018-07-21T12:30:09.296Z,41.60
2018-07-21T12:32:37.984Z,41.33
2018-07-21T12:35:06.751Z,40.97
2018-07-21T12:37:35.435Z,40.74
2018-07-21T12:40:04.303Z,40.54
2018-07-21T12:42:33.697Z,40.34
2018-07-21T12:45:04.088Z,40.13
2018-07-21T12:47:32.948Z,39.93
2018-07-21T12:50:01.655Z,39.83
2018-07-21T12:52:30.384Z,39.78
2018-07-21T12:54:59.019Z,39.75
2018-07-21T12:57:27.592Z,39.60
2018-07-21T12:59:56.224Z,39.53
2018-07-21T13:02:24.886Z,39.43
2018-07-21T13:04:53.915Z,39.41
2018-07-21T13:07:22.544Z,39.36
2018-07-21T13:09:51.269Z,39.37
2018-07-21T13:12:19.909Z,39.40
2018-07-21T13:14:48.643Z,39.34
2018-07-21T13:17:17.410Z,39.28
2018-07-21T13:19:46.150Z,39.20
2018-07-21T13:22:14.719Z,39.09
2018-07-21T13:24:43.585Z,38.93
2018-07-21T13:27:12.166Z,38.80
2018-07-21T13:29:40.751Z,38.61
2018-07-21T13:32:09.643Z,38.40
2018-07-21T13:34:38.183Z,38.16
2018-07-21T13:37:06.999Z,37.99
2018-07-21T13:39:35.572Z,37.81
2018-07-21T13:42:04.162Z,37.61
2018-07-21T13:44:32.899Z,37.40
2018-07-21T13:47:01.603Z,37.28
2018-07-21T13:49:30.364Z,37.13
2018-07-21T13:51:59.200Z,36.97
2018-07-21T13:54:28.016Z,36.85
2018-07-21T13:56:56.763Z,36.71
2018-07-21T13:59:25.608Z,36.53
2018-07-21T14:01:54.231Z,36.24
2018-07-21T14:04:22.875Z,35.73
2018-07-21T14:06:51.777Z,35.15
2018-07-21T14:09:20.628Z,34.67
2018-07-21T14:11:49.473Z,34.23
2018-07-21T14:14:18.271Z,33.71
2018-07-21T14:16:49.986Z,33.27
2018-07-21T14:19:18.753Z,32.65
2018-07-21T14:21:47.434Z,32.20
2018-07-21T14:24:16.251Z,31.91
2018-07-21T14:26:45.036Z,31.58
2018-07-21T14:29:13.724Z,31.51
2018-07-21T14:31:42.378Z,31.37
2018-07-21T14:34:11.024Z,31.03
2018-07-21T14:36:39.965Z,30.76
2018-07-21T14:39:10.009Z,30.66
2018-07-21T14:41:39.302Z,30.52
2018-07-21T14:44:07.946Z,30.40
2018-07-21T14:46:36.629Z,30.16
2018-07-21T14:49:05.551Z,29.92
2018-07-21T14:51:34.324Z,29.75
2018-07-21T14:54:03.116Z,29.61
2018-07-21T14:56:32.154Z,29.54
2018-07-21T14:59:00.930Z,29.39
2018-07-21T15:01:29.797Z,29.25
2018-07-21T15:03:58.635Z,29.08
2018-07-21T15:06:27.480Z,28.96
2018-07-21T15:08:56.291Z,28.91
2018-07-21T15:11:24.965Z,28.91
2018-07-21T15:13:53.614Z,28.96
2018-07-21T15:16:22.662Z,28.96
2018-07-21T15:18:52.204Z,29.01
2018-07-21T15:21:21.051Z,29.15
2018-07-21T15:23:49.687Z,29.37
2018-07-21T15:26:18.341Z,29.50
2018-07-21T15:28:46.940Z,29.58
2018-07-21T15:31:15.767Z,29.60
2018-07-21T15:33:44.409Z,29.63
2018-07-21T15:36:13.333Z,29.72
2018-07-21T15:38:42.822Z,29.81
2018-07-21T15:41:11.485Z,29.88
2018-07-21T15:43:40.275Z,29.99
2018-07-21T15:46:09.061Z,30.13
2018-07-21T15:48:37.707Z,30.28
2018-07-21T15:51:06.361Z,30.35
2018-07-21T15:53:35.397Z,30.43
2018-07-21T15:56:04.463Z,30.56
2018-07-21T15:58:33.230Z,30.68
2018-07-21T16:01:01.938Z,30.83
2018-07-21T16:03:30.700Z,30.99
2018-07-21T16:05:59.537Z,31.08
2018-07-21T16:08:28.366Z,31.14
2018-07-21T16:10:57.066Z,31.22
2018-07-21T16:13:25.710Z,31.29
2018-07-21T16:15:55.892Z,31.27
2018-07-21T16:18:32.189Z,31.21
2018-07-21T16:21:01.291Z,31.19
2018-07-21T16:23:30.457Z,31.13
2018-07-21T16:25:59.326Z,31.10
2018-07-21T16:28:28.194Z,31.07
2018-07-21T16:30:56.850Z,31.03
2018-07-21T16:33:25.646Z,31.09
2018-07-21T16:35:54.480Z,31.15
2018-07-21T16:38:23.514Z,31.27
2018-07-21T16:40:52.227Z,31.29
2018-07-21T16:43:21.010Z,31.24
2018-07-21T16:45:49.842Z,31.18
2018-07-21T16:48:18.684Z,31.18
2018-07-21T16:50:47.440Z,31.22
2018-07-21T16:53:16.138Z,31.23
2018-07-21T16:55:44.904Z,31.25
2018-07-21T16:58:13.588Z,31.21
2018-07-21T17:00:42.251Z,31.13
2018-07-21T17:03:10.891Z,31.10
2018-07-21T17:05:39.684Z,31.10
2018-07-21T17:08:08.692Z,31.08
2018-07-21T17:10:37.375Z,31.07
2018-07-21T17:13:05.982Z,30.99
2018-07-21T17:15:34.653Z,30.92
2018-07-21T17:18:03.399Z,30.92
2018-07-21T17:20:32.114Z,30.80
2018-07-21T17:23:00.911Z,30.76
2018-07-21T17:25:29.494Z,30.76
2018-07-21T17:27:58.230Z,30.73
2018-07-21T17:30:26.828Z,30.68
2018-07-21T17:32:55.490Z,30.63
2018-07-21T17:35:24.125Z,30.60
2018-07-21T17:37:52.688Z,30.60
2018-07-21T17:40:21.477Z,30.61
2018-07-21T17:42:50.223Z,30.54
2018-07-21T17:45:18.782Z,30.45
2018-07-21T17:47:47.450Z,30.38
2018-07-21T17:50:16.158Z,30.31
2018-07-21T17:52:44.867Z,30.26
2018-07-21T17:55:13.462Z,30.23
2018-07-21T17:57:42.176Z,30.18
2018-07-21T18:00:11.002Z,30.15
2018-07-21T18:02:39.597Z,30.14
2018-07-21T18:05:08.317Z,30.10
2018-07-21T18:07:37.001Z,30.05
2018-07-21T18:10:05.650Z,29.96
2018-07-21T18:12:34.502Z,29.84
2018-07-21T18:15:03.105Z,29.72
2018-07-21T18:17:31.741Z,29.62
2018-07-21T18:20:00.509Z,29.55
2018-07-21T18:22:29.250Z,29.49
2018-07-21T18:24:57.962Z,29.43
2018-07-21T18:27:26.628Z,29.38
2018-07-21T18:29:55.295Z,29.32
2018-07-21T18:32:24.055Z,29.25
2018-07-21T18:34:52.717Z,29.19
2018-07-21T18:37:21.413Z,29.15
2018-07-21T18:39:50.209Z,29.11
2018-07-21T18:42:18.851Z,29.08
2018-07-21T18:44:47.522Z,29.06
2018-07-21T18:47:17.471Z,29.03
2018-07-21T18:49:46.112Z,29.00
2018-07-21T18:52:14.788Z,28.95
2018-07-21T18:54:43.701Z,28.90
2018-07-21T18:57:12.982Z,28.86
2018-07-21T18:59:41.570Z,28.84
2018-07-21T19:02:10.275Z,28.80
2018-07-21T19:04:38.936Z,28.75
2018-07-21T19:07:07.720Z,28.71
2018-07-21T19:09:36.284Z,28.66
2018-07-21T19:12:10.048Z,28.63
2018-07-21T19:14:38.798Z,28.58
2018-07-21T19:17:07.395Z,28.52
2018-07-21T19:19:41.275Z,28.47
2018-07-21T19:22:09.921Z,28.43
2018-07-21T19:24:38.669Z,28.36
2018-07-21T19:27:12.580Z,28.32
2018-07-21T19:29:41.241Z,28.27
2018-07-21T19:32:14.986Z,28.22
2018-07-21T19:34:43.614Z,28.18
2018-07-21T19:37:17.590Z,28.15
2018-07-21T19:39:46.275Z,28.13
2018-07-21T19:42:14.973Z,28.13
2018-07-21T19:44:43.520Z,28.08
2018-07-21T19:47:12.399Z,28.03
2018-07-21T19:49:41.086Z,28.00
2018-07-21T19:52:09.826Z,27.98
2018-07-21T19:54:38.607Z,27.97
2018-07-21T19:57:07.444Z,27.96
2018-07-21T19:59:36.244Z,27.97
2018-07-21T20:02:04.976Z,27.95
2018-07-21T20:04:33.790Z,27.94
2018-07-21T20:07:02.590Z,27.90
2018-07-21T20:09:31.428Z,27.88
2018-07-21T20:12:00.107Z,27.85
2018-07-21T20:14:28.772Z,27.81
2018-07-21T20:16:57.446Z,27.17
2018-07-21T20:19:25.968Z,27.79
2018-07-21T20:21:54.558Z,27.78
2018-07-21T20:24:23.345Z,27.78
2018-07-21T20:26:52.091Z,27.74
2018-07-21T20:29:20.776Z,27.70
2018-07-21T20:31:49.555Z,27.67
2018-07-21T20:34:18.121Z,27.65
2018-07-21T20:36:46.715Z,27.61
2018-07-21T20:39:15.250Z,27.55
2018-07-21T20:41:43.883Z,27.49
2018-07-21T20:44:12.574Z,27.40
2018-07-21T20:46:41.199Z,27.33
2018-07-21T20:49:09.888Z,27.28
2018-07-21T20:51:38.577Z,27.25
2018-07-21T20:54:08.256Z,27.23
2018-07-21T20:56:47.498Z,27.20
2018-07-21T20:59:16.208Z,27.15
2018-07-21T21:01:45.751Z,27.09
2018-07-21T21:04:14.396Z,27.05
2018-07-21T21:06:43.060Z,27.00
2018-07-21T21:09:12.069Z,26.94
2018-07-21T21:11:40.778Z,26.93
2018-07-21T21:14:09.369Z,26.90
2018-07-21T21:16:38.184Z,26.88
2018-07-21T21:19:06.723Z,26.86
2018-07-21T21:21:35.255Z,26.85
2018-07-21T21:24:03.790Z,26.82
2018-07-21T21:26:32.364Z,26.81
2018-07-21T21:29:00.938Z,26.78
2018-07-21T21:31:29.532Z,26.75
2018-07-21T21:33:58.121Z,26.73
2018-07-21T21:36:26.654Z,26.70
2018-07-21T21:38:55.265Z,26.67
2018-07-21T21:41:23.849Z,26.64
2018-07-21T21:43:52.412Z,26.60
2018-07-21T21:46:20.993Z,26.56
2018-07-21T21:48:49.524Z,26.51
2018-07-21T21:51:18.056Z,26.48
2018-07-21T21:53:46.566Z,26.45
2018-07-21T21:56:15.168Z,26.43
2018-07-21T21:58:44.012Z,26.37
2018-07-21T22:01:14.332Z,26.29
2018-07-21T22:03:43.220Z,26.20
2018-07-21T22:06:11.857Z,26.15
2018-07-21T22:08:40.468Z,26.08
2018-07-21T22:11:09.043Z,26.03
2018-07-21T22:13:37.602Z,25.98
2018-07-21T22:16:06.288Z,25.97
2018-07-21T22:18:34.880Z,25.28
2018-07-21T22:21:03.523Z,25.95
2018-07-21T22:23:32.175Z,25.96
2018-07-21T22:26:00.899Z,25.95
2018-07-21T22:28:29.614Z,25.94
2018-07-21T22:30:58.284Z,25.93
2018-07-21T22:33:27.021Z,25.95
2018-07-21T22:35:55.976Z,25.93
2018-07-21T22:38:24.656Z,25.92
2018-07-21T22:40:53.253Z,25.91
2018-07-21T22:43:21.930Z,25.91
2018-07-21T22:45:50.670Z,25.88
2018-07-21T22:48:19.406Z,25.87
2018-07-21T22:50:48.093Z,25.87
2018-07-21T22:53:16.592Z,25.83
2018-07-21T22:55:45.163Z,25.82
2018-07-21T22:58:13.721Z,25.81
2018-07-21T23:00:42.335Z,25.79
2018-07-21T23:03:10.936Z,25.79
2018-07-21T23:05:39.530Z,25.78
2018-07-21T23:08:08.164Z,25.78
2018-07-21T23:10:36.727Z,25.80
2018-07-21T23:13:05.472Z,25.79
2018-07-21T23:15:34.050Z,25.78
2018-07-21T23:18:02.691Z,25.77
2018-07-21T23:20:31.369Z,25.75
2018-07-21T23:23:00.031Z,25.75
2018-07-21T23:25:28.664Z,25.77
2018-07-21T23:27:57.261Z,25.76
2018-07-21T23:30:25.816Z,25.77
2018-07-21T23:32:54.366Z,25.78
2018-07-21T23:35:23.010Z,25.80
2018-07-21T23:37:51.613Z,25.82
2018-07-21T23:40:20.188Z,25.83
2018-07-21T23:42:48.881Z,25.84
2018-07-21T23:45:17.582Z,25.86
2018-07-21T23:47:46.164Z,25.89
2018-07-21T23:50:14.996Z,25.90
2018-07-21T23:52:43.601Z,25.93
2018-07-21T23:55:12.268Z,25.95
2018-07-21T23:57:40.990Z,25.93
